Time;durP1;ratioP1;P1;durP2;ratioP2;P2;SDS_P1;SDS_P2;PMS_P1;PMS_P2;Temp;Humidity;BMP_temperature;BMP_pressure;BME280_temperature;BME280_humidity;BME280_pressure;Samples;Min_cycle;Max_cycle;Signal;HPM_P1;HPM_P2
2020/10/31 00:01:04;;;;;;;1.5;1;;;;;;;;;;;;;
2020/10/31 00:03:29;;;;;;;4.4;1.1;;;;;;;;;;;;;
2020/10/31 00:05:54;;;;;;;3.7;1;;;;;;;;;;;;;
2020/10/31 00:08:19;;;;;;;4.2;1.3;;;;;;;;;;;;;
2020/10/31 00:10:47;;;;;;;2.3;1.2;;;;;;;;;;;;;
2020/10/31 00:13:12;;;;;;;1.7;1;;;;;;;;;;;;;
2020/10/31 00:15:37;;;;;;;2.2;1;;;;;;;;;;;;;
2020/10/31 00:18:02;;;;;;;1.1;0.8;;;;;;;;;;;;;
2020/10/31 00:20:27;;;;;;;1.6;1.2;;;;;;;;;;;;;
2020/10/31 00:22:53;;;;;;;1.2;1;;;;;;;;;;;;;
2020/10/31 00:25:18;;;;;;;0.7;0.7;;;;;;;;;;;;;
2020/10/31 00:27:43;;;;;;;4.1;1.1;;;;;;;;;;;;;
2020/10/31 00:30:09;;;;;;;5.6;0.9;;;;;;;;;;;;;
2020/10/31 00:32:34;;;;;;;3.3;1.4;;;;;;;;;;;;;
2020/10/31 00:35:00;;;;;;;2.4;0.9;;;;;;;;;;;;;
2020/10/31 00:37:25;;;;;;;2.2;1.1;;;;;;;;;;;;;
2020/10/31 00:39:50;;;;;;;1.3;0.9;;;;;;;;;;;;;
2020/10/31 00:42:15;;;;;;;5.3;1.3;;;;;;;;;;;;;
2020/10/31 00:44:40;;;;;;;2;1.2;;;;;;;;;;;;;
2020/10/31 00:47:06;;;;;;;1.2;1;;;;;;;;;;;;;
2020/10/31 00:49:31;;;;;;;1.8;1;;;;;;;;;;;;;
2020/10/31 00:51:56;;;;;;;2.9;1.2;;;;;;;;;;;;;
2020/10/31 00:54:21;;;;;;;1.8;1.2;;;;;;;;;;;;;
2020/10/31 00:56:48;;;;;;;1.8;1;;;;;;;;;;;;;
2020/10/31 00:59:13;;;;;;;1.3;0.9;;;;;;;;;;;;;
2020/10/31 01:01:41;;;;;;;1.7;1.1;;;;;;;;;;;;;
2020/10/31 01:04:06;;;;;;;1.2;0.9;;;;;;;;;;;;;
2020/10/31 01:06:33;;;;;;;1.2;1;;;;;;;;;;;;;
2020/10/31 01:08:58;;;;;;;2;1;;;;;;;;;;;;;
2020/10/31 01:11:23;;;;;;;2.1;1;;;;;;;;;;;;;
2020/10/31 01:13:48;;;;;;;1.6;1;;;;;;;;;;;;;
2020/10/31 01:16:14;;;;;;;2.3;1.1;;;;;;;;;;;;;
2020/10/31 01:18:39;;;;;;;1.8;1.1;;;;;;;;;;;;;
2020/10/31 01:21:04;;;;;;;1.2;0.9;;;;;;;;;;;;;
2020/10/31 01:23:29;;;;;;;1.2;1.1;;;;;;;;;;;;;
2020/10/31 01:25:55;;;;;;;1.6;0.9;;;;;;;;;;;;;
2020/10/31 01:28:20;;;;;;;1.4;1;;;;;;;;;;;;;
2020/10/31 01:30:47;;;;;;;2.7;1.2;;;;;;;;;;;;;
2020/10/31 01:33:12;;;;;;;2.3;1.3;;;;;;;;;;;;;
2020/10/31 01:35:38;;;;;;;2.2;1.2;;;;;;;;;;;;;
2020/10/31 01:38:04;;;;;;;1.9;0.9;;;;;;;;;;;;;
2020/10/31 01:40:30;;;;;;;1.2;1;;;;;;;;;;;;;
2020/10/31 01:42:55;;;;;;;1.5;1.3;;;;;;;;;;;;;
2020/10/31 01:45:23;;;;;;;1.2;0.9;;;;;;;;;;;;;
2020/10/31 01:47:48;;;;;;;1.5;1;;;;;;;;;;;;;
2020/10/31 01:50:13;;;;;;;1.9;1.1;;;;;;;;;;;;;
2020/10/31 01:52:38;;;;;;;1.5;1;;;;;;;;;;;;;
2020/10/31 01:55:03;;;;;;;1.5;1.1;;;;;;;;;;;;;
2020/10/31 01:57:29;;;;;;;1.8;1.1;;;;;;;;;;;;;
2020/10/31 01:59:54;;;;;;;1.1;0.8;;;;;;;;;;;;;
2020/10/31 02:02:19;;;;;;;0.7;0.6;;;;;;;;;;;;;
2020/10/31 02:04:44;;;;;;;1.3;0.9;;;;;;;;;;;;;
2020/10/31 02:07:09;;;;;;;1.8;1.1;;;;;;;;;;;;;
2020/10/31 02:09:34;;;;;;;1;0.8;;;;;;;;;;;;;
2020/10/31 02:12:02;;;;;;;1.6;1;;;;;;;;;;;;;
2020/10/31 02:14:27;;;;;;;1.5;1;;;;;;;;;;;;;
2020/10/31 02:16:52;;;;;;;1.3;1.2;;;;;;;;;;;;;
2020/10/31 02:19:17;;;;;;;1.7;0.8;;;;;;;;;;;;;
2020/10/31 02:21:42;;;;;;;1.1;0.8;;;;;;;;;;;;;
2020/10/31 02:24:08;;;;;;;2.2;1.3;;;;;;;;;;;;;
2020/10/31 02:26:34;;;;;;;0.9;0.8;;;;;;;;;;;;;
2020/10/31 02:28:59;;;;;;;1.1;1;;;;;;;;;;;;;
2020/10/31 02:31:25;;;;;;;5;1.3;;;;;;;;;;;;;
2020/10/31 02:33:51;;;;;;;1.9;1.1;;;;;;;;;;;;;
2020/10/31 02:36:16;;;;;;;1.3;1.1;;;;;;;;;;;;;
2020/10/31 02:38:41;;;;;;;3.2;1.1;;;;;;;;;;;;;
2020/10/31 02:41:07;;;;;;;1.1;0.9;;;;;;;;;;;;;
2020/10/31 02:43:32;;;;;;;1.9;1.1;;;;;;;;;;;;;
2020/10/31 02:45:59;;;;;;;1.5;1.3;;;;;;;;;;;;;
2020/10/31 02:48:24;;;;;;;2;1;;;;;;;;;;;;;
2020/10/31 02:50:52;;;;;;;1;0.8;;;;;;;;;;;;;
2020/10/31 02:53:17;;;;;;;1.3;0.9;;;;;;;;;;;;;
2020/10/31 02:55:42;;;;;;;1.1;0.8;;;;;;;;;;;;;
2020/10/31 02:58:07;;;;;;;1;0.8;;;;;;;;;;;;;
2020/10/31 03:00:34;;;;;;;1.3;0.8;;;;;;;;;;;;;
2020/10/31 03:02:59;;;;;;;1.1;0.8;;;;;;;;;;;;;
2020/10/31 03:05:27;;;;;;;5.6;0.7;;;;;;;;;;;;;
2020/10/31 03:07:52;;;;;;;1.1;0.8;;;;;;;;;;;;;
2020/10/31 03:10:17;;;;;;;0.7;0.6;;;;;;;;;;;;;
2020/10/31 03:12:42;;;;;;;0.7;0.6;;;;;;;;;;;;;
2020/10/31 03:15:08;;;;;;;1.7;0.8;;;;;;;;;;;;;
2020/10/31 03:17:33;;;;;;;1.1;1;;;;;;;;;;;;;
2020/10/31 03:19:58;;;;;;;1.2;0.7;;;;;;;;;;;;;
2020/10/31 03:22:23;;;;;;;1.8;1;;;;;;;;;;;;;
2020/10/31 03:24:50;;;;;;;1.5;0.7;;;;;;;;;;;;;
2020/10/31 03:27:15;;;;;;;4.2;1.1;;;;;;;;;;;;;
2020/10/31 03:29:41;;;;;;;1.2;0.8;;;;;;;;;;;;;
2020/10/31 03:32:06;;;;;;;1.7;1.1;;;;;;;;;;;;;
2020/10/31 03:34:32;;;;;;;0.9;0.8;;;;;;;;;;;;;
2020/10/31 03:36:57;;;;;;;3.5;1.3;;;;;;;;;;;;;
2020/10/31 03:39:23;;;;;;;1.3;0.9;;;;;;;;;;;;;
2020/10/31 03:41:48;;;;;;;3.2;1.1;;;;;;;;;;;;;
2020/10/31 03:44:13;;;;;;;1.4;0.9;;;;;;;;;;;;;
2020/10/31 03:46:38;;;;;;;1.8;1;;;;;;;;;;;;;
2020/10/31 03:49:05;;;;;;;1.4;1;;;;;;;;;;;;;
2020/10/31 03:51:30;;;;;;;1.1;0.8;;;;;;;;;;;;;
2020/10/31 03:53:56;;;;;;;1;0.7;;;;;;;;;;;;;
2020/10/31 03:56:21;;;;;;;1.4;0.9;;;;;;;;;;;;;
2020/10/31 03:58:47;;;;;;;1;0.9;;;;;;;;;;;;;
2020/10/31 04:02:31;;;;;;;1.1;0.9;;;;;;;8.67;84.99023;946.7681;;;;
2020/10/31 04:04:57;;;;;;;1.8;1;;;;;;;8.02;87.22363;946.7592;;;;
2020/10/31 04:07:24;;;;;;;0.9;0.7;;;;;;;7.94;88.27148;946.7237;;;;
2020/10/31 04:09:49;;;;;;;1.2;0.8;;;;;;;8.06;87.80957;946.7281;;;;
2020/10/31 04:12:17;;;;;;;0.6;0.6;;;;;;;7.8;88.8584;946.7023;;;;
2020/10/31 04:14:42;;;;;;;1.9;0.8;;;;;;;7.73;88.91113;946.7761;;;;
2020/10/31 04:17:13;;;;;;;1.1;0.9;;;;;;;7.71;88.77148;946.6842;;;;
2020/10/31 04:19:42;;;;;;;0.9;0.8;;;;;;;7.78;87.91113;946.6978;;;;
2020/10/31 04:22:07;;;;;;;0.7;0.6;;;;;;;7.6;88.06738;946.5747;;;;
2020/10/31 04:24:35;;;;;;;1.9;0.9;;;;;;;7.35;89.28418;946.6473;;;;
2020/10/31 04:27:00;;;;;;;1.1;0.8;;;;;;;7.33;89.34863;946.6308;;;;
2020/10/31 04:29:32;;;;;;;1;0.9;;;;;;;7.15;90.58008;946.6155;;;;
2020/10/31 04:32:03;;;;;;;2.2;1.2;;;;;;;7.32;89.24707;946.5524;;;;
2020/10/31 04:34:32;;;;;;;1.9;1.1;;;;;;;7.46;89.18457;946.4892;;;;
2020/10/31 04:36:57;;;;;;;1.3;0.9;;;;;;;7.29;89.75098;946.4467;;;;
2020/10/31 04:39:24;;;;;;;4;1.1;;;;;;;7.26;89.82324;946.4963;;;;
2020/10/31 04:41:49;;;;;;;1.8;0.9;;;;;;;7.08;90.47363;946.4641;;;;
2020/10/31 04:44:15;;;;;;;1.8;0.9;;;;;;;7.27;89.63184;946.4523;;;;
2020/10/31 04:46:40;;;;;;;2;1;;;;;;;7.45;88.43457;946.4601;;;;
2020/10/31 04:49:06;;;;;;;1.4;1.1;;;;;;;7.6;87.70605;946.4528;;;;
2020/10/31 04:51:31;;;;;;;2.1;0.9;;;;;;;7.57;87.04102;946.4341;;;;
2020/10/31 04:54:00;;;;;;;1.2;0.7;;;;;;;7.37;88.02051;946.4358;;;;
2020/10/31 04:56:25;;;;;;;1.1;0.9;;;;;;;7.24;88.50293;946.4447;;;;
2020/10/31 04:58:51;;;;;;;1.4;0.7;;;;;;;7.23;88.39746;946.4277;;;;
2020/10/31 05:01:19;;;;;;;1.1;0.8;;;;;;;7.16;88.4082;946.4473;;;;
2020/10/31 05:03:41;;;;;;;1.9;1.1;;;;;;;7;89.22461;946.4856;;;;
2020/10/31 05:06:06;;;;;;;1.1;0.8;;;;;;;6.9;89.75879;946.4275;;;;
2020/10/31 05:08:33;;;;;;;0.9;0.8;;;;;;;6.78;89.97168;946.384;;;;
2020/10/31 05:10:58;;;;;;;0.9;0.8;;;;;;;6.67;90.50391;946.4125;;;;
2020/10/31 05:13:26;;;;;;;2.3;1;;;;;;;6.96;89.37598;946.3876;;;;
2020/10/31 05:15:56;;;;;;;1.1;0.9;;;;;;;6.78;89.51855;946.2897;;;;
2020/10/31 05:18:26;;;;;;;1.1;0.9;;;;;;;6.75;89.85059;946.2864;;;;
2020/10/31 05:20:56;;;;;;;1.5;0.9;;;;;;;6.78;89.66406;946.2714;;;;
2020/10/31 05:23:23;;;;;;;1.3;0.8;;;;;;;6.71;90.10352;946.2659;;;;
2020/10/31 05:25:50;;;;;;;1.7;1;;;;;;;7.03;88.56055;946.155;;;;
2020/10/31 05:28:15;;;;;;;2.3;1.2;;;;;;;6.83;89.14551;946.2025;;;;
2020/10/31 05:30:42;;;;;;;1.5;1.2;;;;;;;6.92;88.89063;946.1708;;;;
2020/10/31 05:33:07;;;;;;;1.9;1.2;;;;;;;6.81;89.01563;946.1519;;;;
2020/10/31 05:35:32;;;;;;;2.2;1.4;;;;;;;7;88.04492;946.1529;;;;
2020/10/31 05:37:57;;;;;;;1.6;1.3;;;;;;;7.05;87.75;946.1234;;;;
2020/10/31 05:40:22;;;;;;;2.7;1.7;;;;;;;7.26;86.68262;946.0881;;;;
2020/10/31 05:42:47;;;;;;;2.8;1.8;;;;;;;7.12;86.87012;946.0912;;;;
2020/10/31 05:45:13;;;;;;;2.9;1.7;;;;;;;6.8;88.15137;946.1661;;;;
2020/10/31 05:47:39;;;;;;;2.1;1.2;;;;;;;6.7;88.96777;946.1641;;;;
2020/10/31 05:50:04;;;;;;;1.7;0.9;;;;;;;6.83;88.66797;946.2119;;;;
2020/10/31 05:52:29;;;;;;;2;1;;;;;;;6.92;88.28906;946.1262;;;;
2020/10/31 05:54:54;;;;;;;8.5;1;;;;;;;6.89;87.90039;946.2134;;;;
2020/10/31 05:57:19;;;;;;;2.3;1.2;;;;;;;6.61;88.52148;946.2233;;;;
2020/10/31 05:59:44;;;;;;;7.2;1.1;;;;;;;6.01;91.76367;946.1522;;;;
2020/10/31 06:02:11;;;;;;;1.8;1.2;;;;;;;5.83;92.57129;946.1944;;;;
2020/10/31 06:04:36;;;;;;;2.5;0.8;;;;;;;5.69;93.46777;946.2114;;;;
2020/10/31 06:07:03;;;;;;;1.6;1;;;;;;;5.59;94.62012;946.2355;;;;
2020/10/31 06:09:29;;;;;;;1.3;0.9;;;;;;;5.5;95.09473;946.2214;;;;
2020/10/31 06:11:56;;;;;;;1.3;0.8;;;;;;;5.85;92.58691;946.2029;;;;
2020/10/31 06:14:26;;;;;;;2.4;1.1;;;;;;;5.89;92.1582;946.1937;;;;
2020/10/31 06:16:49;;;;;;;4.1;1.4;;;;;;;6.07;91.39258;946.2327;;;;
2020/10/31 06:19:16;;;;;;;2.3;1.3;;;;;;;5.95;93.43262;946.1797;;;;
2020/10/31 06:21:42;;;;;;;3.2;1.4;;;;;;;5.74;94.53027;946.2024;;;;
2020/10/31 06:24:28;;;;;;;2.5;1.5;;;;;;;5.66;97.0498;946.1967;;;;
2020/10/31 06:26:59;;;;;;;5.9;2.1;;;;;;;5.66;99.87207;946.1531;;;;
2020/10/31 06:29:30;;;;;;;2.6;1.7;;;;;;;5.76;99.43262;946.2227;;;;
2020/10/31 06:31:59;;;;;;;4.9;2;;;;;;;5.9;98.11035;946.2186;;;;
2020/10/31 06:34:32;;;;;;;3.5;2.1;;;;;;;5.95;96.53906;946.2183;;;;
2020/10/31 06:37:02;;;;;;;2.6;1.8;;;;;;;6.07;96.72656;946.2243;;;;
2020/10/31 06:39:24;;;;;;;2.3;1.6;;;;;;;6.53;94.74902;946.2922;;;;
2020/10/31 06:41:58;;;;;;;4.9;2.1;;;;;;;6.55;93.57617;946.2492;;;;
2020/10/31 06:44:40;;;;;;;1.9;1.5;;;;;;;6.61;93.34082;946.3119;;;;
2020/10/31 06:46:58;;;;;;;2.8;1.6;;;;;;;6.45;93.98438;946.2225;;;;
2020/10/31 06:49:30;;;;;;;3.5;1.9;;;;;;;6.4;94.61914;946.2395;;;;
2020/10/31 06:52:05;;;;;;;4;1.6;;;;;;;6.39;94.20801;946.2414;;;;
2020/10/31 06:54:31;;;;;;;2.6;1.7;;;;;;;6.35;94.36816;946.1741;;;;
2020/10/31 06:57:05;;;;;;;3.1;1.9;;;;;;;6.51;94.22266;946.2842;;;;
2020/10/31 06:59:28;;;;;;;3.5;2;;;;;;;6.51;94.1543;946.2454;;;;
2020/10/31 07:02:09;;;;;;;3.3;1.9;;;;;;;6.23;95.66406;946.2877;;;;
2020/10/31 07:04:44;;;;;;;2.9;1.7;;;;;;;6.35;95.04785;946.2319;;;;
2020/10/31 07:07:21;;;;;;;1.9;1.4;;;;;;;6.59;93.68652;946.2374;;;;
2020/10/31 07:09:48;;;;;;;2;1.3;;;;;;;6.6;92.85059;946.2502;;;;
2020/10/31 07:12:13;;;;;;;3.1;1.7;;;;;;;6.84;91.80566;946.2351;;;;
2020/10/31 07:14:40;;;;;;;2.9;1.5;;;;;;;7.15;90.71582;946.1975;;;;
2020/10/31 07:17:05;;;;;;;2.7;1.8;;;;;;;7.01;90.54004;946.175;;;;
2020/10/31 07:19:34;;;;;;;2;1.5;;;;;;;7.02;90.07715;946.2143;;;;
2020/10/31 07:21:59;;;;;;;2.2;1.7;;;;;;;6.96;90.16602;946.1919;;;;
2020/10/31 07:24:24;;;;;;;2.4;1.5;;;;;;;6.97;89.89648;946.1789;;;;
2020/10/31 07:26:49;;;;;;;1.9;1.2;;;;;;;7.43;88.36035;946.1411;;;;
2020/10/31 07:29:17;;;;;;;2.3;1.5;;;;;;;7.64;86.44141;946.0444;;;;
2020/10/31 07:31:42;;;;;;;2.1;1.6;;;;;;;7.33;88.4873;946.1477;;;;
2020/10/31 07:34:11;;;;;;;2.6;1.5;;;;;;;7.31;88.85742;946.1105;;;;
2020/10/31 07:36:36;;;;;;;3.2;1.7;;;;;;;7.36;88.38184;946.087;;;;
2020/10/31 07:39:03;;;;;;;4.3;1.6;;;;;;;7.85;86.49609;945.9319;;;;
2020/10/31 07:41:28;;;;;;;3.2;1.7;;;;;;;8.24;84.73438;946.0231;;;;
2020/10/31 07:43:57;;;;;;;3.3;1.8;;;;;;;8.68;82.2959;945.9537;;;;
2020/10/31 07:46:22;;;;;;;2.7;1.4;;;;;;;8.94;81.20898;945.9256;;;;
2020/10/31 07:48:51;;;;;;;2;1.3;;;;;;;9.12;80.61719;945.9324;;;;
2020/10/31 07:51:16;;;;;;;1.8;1.1;;;;;;;9.3;79.58203;945.8869;;;;
2020/10/31 07:53:45;;;;;;;1.8;1.2;;;;;;;9.73;77.75684;945.8395;;;;
2020/10/31 07:56:14;;;;;;;4.6;1.5;;;;;;;9.89;77.02246;945.7902;;;;
2020/10/31 07:58:39;;;;;;;2.7;1.4;;;;;;;10.34;75.19727;945.8478;;;;
2020/10/31 08:01:11;;;;;;;2.6;1.4;;;;;;;10.36;75.12988;945.8594;;;;
2020/10/31 08:03:41;;;;;;;2.6;1.4;;;;;;;10.23;74.92578;945.8333;;;;
2020/10/31 08:06:06;;;;;;;2;1.3;;;;;;;11.34;72.29492;945.8083;;;;
2020/10/31 08:08:32;;;;;;;2.2;1;;;;;;;11.92;68.40332;945.7507;;;;
2020/10/31 08:10:57;;;;;;;2.3;1.3;;;;;;;12.19;67.93066;945.7227;;;;
2020/10/31 08:13:25;;;;;;;1.9;1.1;;;;;;;13.21;64.20801;945.7023;;;;
2020/10/31 08:15:50;;;;;;;3.2;1.1;;;;;;;13.51;63.06836;945.6641;;;;
2020/10/31 08:18:20;;;;;;;4;1.2;;;;;;;13.35;63.80176;945.7389;;;;
2020/10/31 08:20:49;;;;;;;1.2;0.8;;;;;;;13.63;61.56738;945.6912;;;;
2020/10/31 08:23:14;;;;;;;2.2;1.1;;;;;;;13.23;62.64844;945.6536;;;;
2020/10/31 08:25:41;;;;;;;1.4;1;;;;;;;12.69;64.72754;945.6539;;;;
2020/10/31 08:28:06;;;;;;;1.7;1.3;;;;;;;11.83;68.15039;945.6386;;;;
2020/10/31 08:30:38;;;;;;;3.2;1.4;;;;;;;11.85;68.65723;945.6125;;;;
2020/10/31 08:33:15;;;;;;;3;1.2;;;;;;;11.68;68.41211;945.582;;;;
2020/10/31 08:35:39;;;;;;;2.2;1.2;;;;;;;11.5;70.21484;945.5785;;;;
2020/10/31 08:40:35;;;;;;;2.6;1.5;;;;;;;10.65;74.26855;945.5167;;;;
2020/10/31 08:42:53;;;;;;;2;1.5;;;;;;;10.47;74.61426;945.5396;;;;
2020/10/31 08:45:24;;;;;;;1.8;1.3;;;;;;;10.68;75.12988;945.4949;;;;
2020/10/31 08:47:44;;;;;;;2.9;1.5;;;;;;;10.67;74.16895;945.4692;;;;
2020/10/31 08:50:16;;;;;;;2.8;2;;;;;;;11.17;73.00781;945.4429;;;;
2020/10/31 08:52:44;;;;;;;6.4;3.2;;;;;;;11.11;71.71973;945.3398;;;;
2020/10/31 08:55:09;;;;;;;5;3;;;;;;;11.26;71.14844;945.3293;;;;
2020/10/31 08:57:36;;;;;;;7.7;2.7;;;;;;;10.94;69.4043;945.3092;;;;
2020/10/31 09:00:01;;;;;;;4.4;2.4;;;;;;;11.23;69.93066;945.2346;;;;
2020/10/31 09:02:29;;;;;;;5.5;2.6;;;;;;;11.43;68.58984;945.1747;;;;
2020/10/31 09:04:54;;;;;;;4.7;2;;;;;;;11.56;67.99121;945.1992;;;;
2020/10/31 09:07:19;;;;;;;2.7;1.5;;;;;;;11.3;68.66113;945.2032;;;;
2020/10/31 09:09:47;;;;;;;2.5;1.4;;;;;;;11.39;69.47461;945.1417;;;;
2020/10/31 09:12:12;;;;;;;3.4;1.5;;;;;;;11.69;68.96289;945.1752;;;;
2020/10/31 09:14:38;;;;;;;10.9;1.6;;;;;;;11.76;68.51563;945.1436;;;;
2020/10/31 09:17:05;;;;;;;3.1;1.8;;;;;;;12.09;69.01465;945.1655;;;;
2020/10/31 09:19:30;;;;;;;1.6;1.2;;;;;;;12.18;68.35352;945.1764;;;;
2020/10/31 09:21:57;;;;;;;5.6;1.9;;;;;;;11.97;68.5957;945.1891;;;;
2020/10/31 09:24:22;;;;;;;3.8;1.7;;;;;;;11.91;68.21875;945.1625;;;;
2020/10/31 09:26:49;;;;;;;2.3;1.4;;;;;;;11.76;67.83008;945.04;;;;
2020/10/31 09:29:13;;;;;;;3;1.8;;;;;;;11.84;68.48242;945.0425;;;;
2020/10/31 09:31:41;;;;;;;2.1;1.6;;;;;;;12.15;67.48926;945.017;;;;
2020/10/31 09:34:06;;;;;;;2.9;1.4;;;;;;;12.28;68.25391;944.9976;;;;
2020/10/31 09:36:32;;;;;;;2.1;1.3;;;;;;;12.23;64.6709;944.957;;;;
2020/10/31 09:38:58;;;;;;;3;1.3;;;;;;;12.58;64.20508;944.9083;;;;
2020/10/31 09:41:24;;;;;;;3.5;1.6;;;;;;;12.91;62.58984;944.8976;;;;
2020/10/31 09:43:49;;;;;;;3.1;1.2;;;;;;;13.07;60.82227;944.8373;;;;
2020/10/31 09:46:19;;;;;;;3;1.8;;;;;;;13.22;61.71582;944.813;;;;
2020/10/31 09:48:44;;;;;;;2.5;1.6;;;;;;;13.72;60.24609;944.8251;;;;
2020/10/31 09:51:11;;;;;;;1.4;1;;;;;;;13.98;58.73828;944.7817;;;;
2020/10/31 09:53:36;;;;;;;2.6;1.6;;;;;;;13.66;59.31738;944.7174;;;;
2020/10/31 09:56:04;;;;;;;2.4;1.3;;;;;;;13.5;58.34082;944.7246;;;;
2020/10/31 09:58:29;;;;;;;1.7;1.4;;;;;;;13.59;57.14551;944.7158;;;;
2020/10/31 10:00:55;;;;;;;1.9;1.3;;;;;;;13.99;56.81934;944.7201;;;;
2020/10/31 10:03:21;;;;;;;2.1;1.4;;;;;;;14.33;56.06836;944.673;;;;
2020/10/31 10:05:50;;;;;;;2.2;1.6;;;;;;;14.07;56.54102;944.7129;;;;
2020/10/31 10:08:16;;;;;;;2;1.3;;;;;;;14.41;57.0459;944.6975;;;;
2020/10/31 10:10:41;;;;;;;2.7;2;;;;;;;14.58;56.29688;944.6948;;;;
2020/10/31 10:13:07;;;;;;;4.1;1.7;;;;;;;14.65;57.58496;944.6939;;;;
2020/10/31 10:15:33;;;;;;;4.3;2;;;;;;;14.71;58.44629;944.658;;;;
2020/10/31 10:18:06;;;;;;;3.8;1.8;;;;;;;14.83;55.58105;944.6395;;;;
2020/10/31 10:20:35;;;;;;;3.8;1.8;;;;;;;14.61;56.47266;944.5828;;;;
2020/10/31 10:23:06;;;;;;;2.3;1.8;;;;;;;14.78;55.22656;944.4939;;;;
2020/10/31 10:25:38;;;;;;;2.8;1.5;;;;;;;14.64;54.7373;944.556;;;;
2020/10/31 10:28:03;;;;;;;2.4;1.6;;;;;;;14.57;52.36426;944.4993;;;;
2020/10/31 10:30:37;;;;;;;1.9;1.4;;;;;;;15.03;53.29883;944.4375;;;;
2020/10/31 10:33:05;;;;;;;1.9;1.2;;;;;;;15;53.23535;944.3986;;;;
2020/10/31 10:35:30;;;;;;;4.2;1.6;;;;;;;15.08;55.42676;944.3566;;;;
2020/10/31 10:37:59;;;;;;;2.2;1.5;;;;;;;15.51;54.95117;944.3239;;;;
2020/10/31 10:40:24;;;;;;;3.1;2;;;;;;;15.63;54.92969;944.2747;;;;
2020/10/31 10:42:54;;;;;;;2.1;1.2;;;;;;;15.81;52.25977;944.1678;;;;
2020/10/31 10:45:25;;;;;;;3.6;1.9;;;;;;;15.75;52.78516;944.1758;;;;
2020/10/31 10:47:53;;;;;;;2.6;1.6;;;;;;;16.06;52.625;944.1382;;;;
2020/10/31 10:50:18;;;;;;;2.7;1.7;;;;;;;16.08;50.30273;944.0859;;;;
2020/10/31 10:52:45;;;;;;;3.7;1.5;;;;;;;15.97;50.56836;944.0128;;;;
2020/10/31 10:55:14;;;;;;;4.7;1.9;;;;;;;16.36;50.00098;943.9559;;;;
2020/10/31 10:57:35;;;;;;;4.3;1.6;;;;;;;16.38;48.99512;943.9728;;;;
2020/10/31 11:00:01;;;;;;;2.8;1.3;;;;;;;16.8;50.80273;943.9476;;;;
2020/10/31 11:02:26;;;;;;;3;1.6;;;;;;;16.7;48.39453;943.9377;;;;
2020/10/31 11:04:53;;;;;;;2.7;1.9;;;;;;;17.15;48.4209;943.8946;;;;
2020/10/31 11:07:18;;;;;;;2.5;1.5;;;;;;;17.25;47.84082;943.9063;;;;
2020/10/31 11:09:44;;;;;;;3.9;2;;;;;;;17.46;47.22559;943.822;;;;
2020/10/31 11:12:09;;;;;;;1.8;1.4;;;;;;;18.5;45.5;943.7681;;;;
2020/10/31 11:14:37;;;;;;;2.2;1.3;;;;;;;19.5;43.27246;943.6944;;;;
2020/10/31 11:17:02;;;;;;;1.1;0.8;;;;;;;19.18;42.64648;943.6641;;;;
2020/10/31 11:19:30;;;;;;;3.9;1.6;;;;;;;19.14;41.44336;943.5734;;;;
2020/10/31 11:21:55;;;;;;;4.8;1.9;;;;;;;20.18;39.25391;943.5112;;;;
2020/10/31 11:24:22;;;;;;;1.9;0.9;;;;;;;20.28;38.46875;943.4497;;;;
2020/10/31 11:26:47;;;;;;;6.2;1.4;;;;;;;21.16;37.45703;943.515;;;;
2020/10/31 11:29:12;;;;;;;2;1.3;;;;;;;21.62;36.19629;943.432;;;;
2020/10/31 11:31:38;;;;;;;1.8;1.3;;;;;;;21.54;34.80859;943.412;;;;
2020/10/31 11:34:10;;;;;;;1.6;1.2;;;;;;;22.23;34.89746;943.3933;;;;
2020/10/31 11:36:50;;;;;;;1.7;1.3;;;;;;;23.21;33.69336;943.3286;;;;
2020/10/31 11:39:22;;;;;;;1.8;1.2;;;;;;;23.68;32.35254;943.2805;;;;
2020/10/31 11:41:56;;;;;;;1.2;1.1;;;;;;;23.13;33.55859;943.2717;;;;
2020/10/31 11:44:29;;;;;;;2.5;1.3;;;;;;;23.34;34.9375;943.1713;;;;
2020/10/31 11:46:54;;;;;;;2.1;0.9;;;;;;;24.16;34.40137;943.1613;;;;
2020/10/31 11:49:20;;;;;;;3.4;1.2;;;;;;;24.05;32.37988;943.1213;;;;
2020/10/31 11:51:46;;;;;;;1.2;1;;;;;;;24.38;31.46094;943.0723;;;;
2020/10/31 11:54:19;;;;;;;2.1;1.1;;;;;;;26.09;28.99121;943.0853;;;;
2020/10/31 11:56:48;;;;;;;2.8;1.5;;;;;;;27.77;27.24707;943.0017;;;;
2020/10/31 11:59:13;;;;;;;1.9;1;;;;;;;28.65;25.20703;943.0145;;;;
2020/10/31 12:01:43;;;;;;;2.1;1.7;;;;;;;27.86;26.77832;942.9602;;;;
2020/10/31 12:04:13;;;;;;;2.4;1;;;;;;;28.76;24.87988;942.8766;;;;
2020/10/31 12:06:39;;;;;;;1.2;1;;;;;;;31.09;23.27441;942.8844;;;;
2020/10/31 12:09:05;;;;;;;1.9;1.1;;;;;;;31.97;21.98926;942.7916;;;;
2020/10/31 12:11:36;;;;;;;3.2;1;;;;;;;32.74;20.3584;942.7679;;;;
2020/10/31 12:14:07;;;;;;;2.6;1.2;;;;;;;33.24;19.74414;942.7531;;;;
2020/10/31 12:16:32;;;;;;;2.1;1.1;;;;;;;34.12;18.66211;942.7849;;;;
2020/10/31 12:19:00;;;;;;;2.1;1.1;;;;;;;34.27;18.4873;942.7564;;;;
2020/10/31 12:21:25;;;;;;;1.4;1;;;;;;;35.04;18.20508;942.7244;;;;
2020/10/31 12:23:51;;;;;;;2.9;1.2;;;;;;;35.98;16.73145;942.637;;;;
2020/10/31 12:26:17;;;;;;;1.7;1.2;;;;;;;36.1;16.74805;942.6504;;;;
2020/10/31 12:28:42;;;;;;;2.2;1.2;;;;;;;34.96;17.7793;942.5919;;;;
2020/10/31 12:31:13;;;;;;;1.4;1.1;;;;;;;35;18.5293;942.6145;;;;
2020/10/31 12:33:41;;;;;;;2.3;1;;;;;;;36.49;17.23438;942.5658;;;;
2020/10/31 12:36:10;;;;;;;2.5;1.2;;;;;;;37.38;16.01855;942.5161;;;;
2020/10/31 12:38:37;;;;;;;1.4;0.9;;;;;;;37.42;15.34082;942.5125;;;;
2020/10/31 12:41:02;;;;;;;2.9;0.9;;;;;;;35.41;17.04883;942.4464;;;;
2020/10/31 12:43:31;;;;;;;3.8;1.2;;;;;;;36.02;17.22852;942.418;;;;
2020/10/31 12:45:59;;;;;;;0.9;0.7;;;;;;;37.11;16.0332;942.3636;;;;
2020/10/31 12:48:24;;;;;;;2.4;0.9;;;;;;;38.1;15.21777;942.3699;;;;
2020/10/31 12:50:57;;;;;;;1.8;1.2;;;;;;;38.56;14.66211;942.2696;;;;
2020/10/31 12:53:25;;;;;;;2.7;1.4;;;;;;;38.87;14.79297;942.2414;;;;
2020/10/31 12:55:51;;;;;;;2;1;;;;;;;39.06;14.82324;942.2341;;;;
2020/10/31 12:58:20;;;;;;;1.5;1.1;;;;;;;39.44;14.28711;942.1935;;;;
2020/10/31 13:00:55;;;;;;;1.9;1.1;;;;;;;39.3;14.63672;942.1614;;;;
2020/10/31 13:03:20;;;;;;;2.3;1.1;;;;;;;38.94;15.14844;942.1791;;;;
2020/10/31 13:05:47;;;;;;;2.2;1.3;;;;;;;39.17;15.09473;942.1141;;;;
2020/10/31 13:08:13;;;;;;;1.6;0.9;;;;;;;38.79;15.2041;942.0818;;;;
2020/10/31 13:10:51;;;;;;;3.2;1.3;;;;;;;38.99;14.85742;942.0829;;;;
2020/10/31 13:13:19;;;;;;;1.2;1.1;;;;;;;38.85;15.36426;941.9816;;;;
2020/10/31 13:15:45;;;;;;;2.1;1.3;;;;;;;38.88;15.49902;941.9872;;;;
2020/10/31 13:18:13;;;;;;;1.2;0.8;;;;;;;39.1;15.05664;941.92;;;;
2020/10/31 13:20:38;;;;;;;2.3;1;;;;;;;39.19;15.29004;941.9066;;;;
2020/10/31 13:23:06;;;;;;;2.1;1.2;;;;;;;39.54;15.32617;941.9657;;;;
2020/10/31 13:25:31;;;;;;;1.6;1;;;;;;;39.5;15.09375;941.9378;;;;
2020/10/31 13:27:57;;;;;;;1.3;1.1;;;;;;;39.82;14.88477;941.9375;;;;
2020/10/31 13:30:41;;;;;;;1.7;1.1;;;;;;;39.83;14.7627;941.8987;;;;
2020/10/31 13:33:09;;;;;;;1.4;0.9;;;;;;;40.01;14.79297;941.9352;;;;
2020/10/31 13:35:40;;;;;;;1;0.8;;;;;;;40.22;14.16504;941.9444;;;;
2020/10/31 13:38:05;;;;;;;2.6;1;;;;;;;39.82;15.34766;941.8975;;;;
2020/10/31 13:40:34;;;;;;;1.5;0.8;;;;;;;39.61;16.29199;941.928;;;;
2020/10/31 13:42:59;;;;;;;1.8;1.2;;;;;;;39.47;16.56641;941.9369;;;;
2020/10/31 13:45:33;;;;;;;1.2;1;;;;;;;39.5;16.34863;941.8555;;;;
2020/10/31 13:47:58;;;;;;;3.7;1.2;;;;;;;39.49;16.28711;941.8865;;;;
2020/10/31 13:50:23;;;;;;;2.8;1.3;;;;;;;39.16;16.54297;941.8173;;;;
2020/10/31 13:52:48;;;;;;;0.8;0.8;;;;;;;38.7;17.17188;941.837;;;;
2020/10/31 13:55:20;;;;;;;2.4;1;;;;;;;38.14;17.59961;941.8347;;;;
2020/10/31 13:57:52;;;;;;;2.7;1;;;;;;;37.75;18.08203;941.7684;;;;
2020/10/31 14:00:22;;;;;;;1.8;1;;;;;;;37.3;18.0166;941.7531;;;;
2020/10/31 14:02:47;;;;;;;1.3;1.2;;;;;;;37.15;18.76172;941.7603;;;;
2020/10/31 14:05:19;;;;;;;1.9;1.4;;;;;;;36.75;18.66113;941.7507;;;;
2020/10/31 14:07:44;;;;;;;2.1;1.2;;;;;;;36.6;19.27148;941.7196;;;;
2020/10/31 14:10:16;;;;;;;2.2;1;;;;;;;36.3;20.02148;941.7036;;;;
2020/10/31 14:12:41;;;;;;;1.7;1.1;;;;;;;36.07;20.12012;941.6622;;;;
2020/10/31 14:15:08;;;;;;;6;0.8;;;;;;;35.69;20.23633;941.6428;;;;
2020/10/31 14:17:35;;;;;;;1.4;1;;;;;;;35.27;20.60449;941.6362;;;;
2020/10/31 14:20:02;;;;;;;4;1.4;;;;;;;35.13;20.81543;941.6383;;;;
2020/10/31 14:22:27;;;;;;;1.2;0.8;;;;;;;34.76;20.60547;941.6205;;;;
2020/10/31 14:24:57;;;;;;;2.1;1.1;;;;;;;34.27;21.3418;941.5965;;;;
2020/10/31 14:27:22;;;;;;;2.4;1.3;;;;;;;33.88;21.90137;941.5558;;;;
2020/10/31 14:29:47;;;;;;;2.7;0.9;;;;;;;33.15;23.10352;941.5737;;;;
2020/10/31 14:32:13;;;;;;;3.9;1.7;;;;;;;32.48;24.26953;941.6122;;;;
2020/10/31 14:34:38;;;;;;;3.3;1.9;;;;;;;31.62;25.38477;941.5464;;;;
2020/10/31 14:37:03;;;;;;;6.3;2.3;;;;;;;30.78;26.82031;941.5397;;;;
2020/10/31 14:39:29;;;;;;;2;1.5;;;;;;;29.91;27.86621;941.5561;;;;
2020/10/31 14:41:54;;;;;;;2.4;1.3;;;;;;;29.18;29;941.6108;;;;
2020/10/31 14:44:20;;;;;;;2.1;1;;;;;;;27.95;31.03516;941.62;;;;
2020/10/31 14:46:45;;;;;;;4.5;1.1;;;;;;;27.25;32.00684;941.5751;;;;
2020/10/31 14:49:19;;;;;;;3;1.3;;;;;;;26.5;33.38574;941.6347;;;;
2020/10/31 14:51:44;;;;;;;2.1;1.2;;;;;;;25.89;34.75977;941.6288;;;;
2020/10/31 14:54:14;;;;;;;1.8;1.1;;;;;;;25.17;36.86328;941.7433;;;;
2020/10/31 14:56:40;;;;;;;2;1.3;;;;;;;24.41;38.17969;941.7239;;;;
2020/10/31 14:59:05;;;;;;;7.1;1.5;;;;;;;23.74;40.37012;941.7615;;;;
2020/10/31 15:01:30;;;;;;;4.3;2.2;;;;;;;22.75;42.64063;941.7467;;;;
2020/10/31 15:03:58;;;;;;;1.1;1;;;;;;;22.2;43.50195;941.7209;;;;
2020/10/31 15:06:24;;;;;;;2.9;1.7;;;;;;;21.73;44.71973;941.7264;;;;
2020/10/31 15:08:48;;;;;;;1.6;1.1;;;;;;;21.28;45.93945;941.7769;;;;
2020/10/31 15:11:15;;;;;;;4.8;1.9;;;;;;;20.7;47.02441;941.803;;;;
2020/10/31 15:13:42;;;;;;;2.3;1.6;;;;;;;20.41;48.1377;941.785;;;;
2020/10/31 15:16:07;;;;;;;1.6;1.5;;;;;;;20.12;49.12207;941.7989;;;;
2020/10/31 15:18:31;;;;;;;3.1;2;;;;;;;19.87;50.31836;941.7758;;;;
2020/10/31 15:20:56;;;;;;;7.9;1.5;;;;;;;19.67;50.86621;941.8208;;;;
2020/10/31 15:23:22;;;;;;;9.7;1.6;;;;;;;19.42;52.37598;941.7643;;;;
2020/10/31 15:25:46;;;;;;;2.6;1.4;;;;;;;19.19;52.54785;941.718;;;;
2020/10/31 15:28:13;;;;;;;4.1;1.8;;;;;;;18.96;53.1377;941.6805;;;;
2020/10/31 15:30:38;;;;;;;4.4;1.6;;;;;;;18.79;53.58105;941.7228;;;;
2020/10/31 15:33:04;;;;;;;3.8;1.4;;;;;;;18.61;54.2334;941.7033;;;;
2020/10/31 15:35:30;;;;;;;2;1.4;;;;;;;18.41;54.95313;941.7658;;;;
2020/10/31 15:37:56;;;;;;;3.2;1.7;;;;;;;18.15;55.82715;941.7678;;;;
2020/10/31 15:40:20;;;;;;;4.4;1.4;;;;;;;17.92;56.63477;941.764;;;;
2020/10/31 15:42:46;;;;;;;7.3;1.9;;;;;;;17.63;57.9082;941.7285;;;;
2020/10/31 15:45:11;;;;;;;3.9;1.8;;;;;;;17.39;58.47949;941.7838;;;;
2020/10/31 15:47:36;;;;;;;3.5;1.7;;;;;;;16.92;60.35352;941.7679;;;;